Time;durP1;ratioP1;P1;durP2;ratioP2;P2;SDS_P1;SDS_P2;PMS_P1;PMS_P2;Temp;Humidity;BMP_temperature;BMP_pressure;BME280_temperature;BME280_humidity;BME280_pressure;Samples;Min_cycle;Max_cycle;Signal;HPM_P1;HPM_P2
2021/09/13 00:01:44;;;;;;;7.35;2.30;;;;;;;;;;5071096;28;20054;-82
2021/09/13 00:04:10;;;;;;;11.18;2.70;;;;;;;;;;5072939;28;20170;-83
2021/09/13 00:06:36;;;;;;;10.38;2.28;;;;;;;;;;5108680;28;20048;-86
2021/09/13 00:09:02;;;;;;;9.40;2.83;;;;;;;;;;5094133;28;20043;-81
2021/09/13 00:11:28;;;;;;;8.95;2.85;;;;;;;;;;5093491;28;20412;-82
2021/09/13 00:13:54;;;;;;;8.68;2.33;;;;;;;;;;5093275;28;20156;-83
2021/09/13 00:16:20;;;;;;;9.35;2.50;;;;;;;;;;5093453;28;20036;-83
2021/09/13 00:18:46;;;;;;;10.98;2.70;;;;;;;;;;5093188;28;20437;-81
2021/09/13 00:21:12;;;;;;;10.95;2.53;;;;;;;;;;5094117;28;20051;-81
2021/09/13 00:23:38;;;;;;;12.30;3.00;;;;;;;;;;5074795;28;20036;-87
2021/09/13 00:26:04;;;;;;;6.57;2.50;;;;;;;;;;5092867;28;20047;-83
2021/09/13 00:28:30;;;;;;;9.10;2.70;;;;;;;;;;5093455;28;20036;-81
2021/09/13 00:30:56;;;;;;;10.40;2.60;;;;;;;;;;5075497;28;20114;-82
2021/09/13 00:33:22;;;;;;;9.93;2.47;;;;;;;;;;5094002;28;20071;-81
2021/09/13 00:35:48;;;;;;;9.52;2.50;;;;;;;;;;5092948;28;20051;-83
2021/09/13 00:38:15;;;;;;;11.77;2.60;;;;;;;;;;5093599;28;20035;-81
2021/09/13 00:40:41;;;;;;;9.60;2.75;;;;;;;;;;5092658;28;20039;-82
2021/09/13 00:43:07;;;;;;;10.73;2.90;;;;;;;;;;5111482;28;20039;-81
2021/09/13 00:45:33;;;;;;;11.35;2.80;;;;;;;;;;5092721;28;20047;-82
2021/09/13 00:48:00;;;;;;;10.15;2.85;;;;;;;;;;5092625;28;20055;-81
2021/09/13 00:50:26;;;;;;;9.30;2.65;;;;;;;;;;5090940;28;20054;-83
2021/09/13 00:52:53;;;;;;;9.10;2.70;;;;;;;;;;5090952;28;20058;-82
2021/09/13 00:55:20;;;;;;;12.45;2.55;;;;;;;;;;5117690;27;20040;-82
2021/09/13 00:57:49;;;;;;;9.90;2.45;;;;;;;;;;5091617;28;20674;-81
2021/09/13 01:00:16;;;;;;;13.77;3.17;;;;;;;;;;5092202;28;20051;-83
2021/09/13 01:02:42;;;;;;;11.30;3.15;;;;;;;;;;5091829;28;20044;-82
2021/09/13 01:05:08;;;;;;;14.20;2.92;;;;;;;;;;5091884;28;20092;-83
2021/09/13 01:07:35;;;;;;;8.68;3.17;;;;;;;;;;5092921;28;20047;-82
2021/09/13 01:10:01;;;;;;;15.45;3.15;;;;;;;;;;5092398;28;20135;-82
2021/09/13 01:12:28;;;;;;;9.40;2.90;;;;;;;;;;5076449;28;20123;-82
2021/09/13 01:14:54;;;;;;;8.13;2.08;;;;;;;;;;5074787;28;20051;-82
2021/09/13 01:17:20;;;;;;;10.77;2.30;;;;;;;;;;5090912;28;20043;-82
2021/09/13 01:19:46;;;;;;;11.38;2.40;;;;;;;;;;5091934;28;20514;-81
2021/09/13 01:22:13;;;;;;;7.40;2.50;;;;;;;;;;5075447;28;20055;-83
2021/09/13 01:24:39;;;;;;;6.88;2.60;;;;;;;;;;5108899;28;20141;-86
2021/09/13 01:27:06;;;;;;;8.73;2.42;;;;;;;;;;5091649;28;20047;-81
2021/09/13 01:29:36;;;;;;;8.32;2.45;;;;;;;;;;5110747;28;20044;-81
2021/09/13 01:32:02;;;;;;;9.60;2.35;;;;;;;;;;5074858;28;20043;-81
2021/09/13 01:34:28;;;;;;;9.13;2.45;;;;;;;;;;5092429;28;20036;-80
2021/09/13 01:36:54;;;;;;;10.27;2.75;;;;;;;;;;5091218;28;20471;-80
2021/09/13 01:39:20;;;;;;;9.70;2.40;;;;;;;;;;5091934;28;20550;-81
2021/09/13 01:41:47;;;;;;;7.00;2.47;;;;;;;;;;5109286;28;20044;-81
2021/09/13 01:44:14;;;;;;;7.63;2.35;;;;;;;;;;5075364;28;20149;-84
2021/09/13 01:46:40;;;;;;;8.02;2.20;;;;;;;;;;5091441;28;20046;-88
2021/09/13 01:49:07;;;;;;;9.00;2.30;;;;;;;;;;5090951;28;20054;-81
2021/09/13 01:51:34;;;;;;;7.45;2.20;;;;;;;;;;5092195;28;20044;-82
2021/09/13 01:54:00;;;;;;;8.93;2.55;;;;;;;;;;5090181;28;20032;-81
2021/09/13 01:56:27;;;;;;;8.18;2.25;;;;;;;;;;5090869;28;20054;-84
2021/09/13 01:58:53;;;;;;;7.60;2.40;;;;;;;;;;5090536;28;20553;-81
2021/09/13 02:01:20;;;;;;;11.10;2.40;;;;;;;;;;5074658;28;20395;-80
2021/09/13 02:03:46;;;;;;;7.97;2.13;;;;;;;;;;5073484;28;20114;-81
2021/09/13 02:06:12;;;;;;;10.70;2.40;;;;;;;;;;5090658;28;20048;-82
2021/09/13 02:08:38;;;;;;;9.25;2.35;;;;;;;;;;5092018;28;20071;-86
2021/09/13 02:11:05;;;;;;;7.07;2.35;;;;;;;;;;5090757;28;20055;-81
2021/09/13 02:13:31;;;;;;;7.07;2.88;;;;;;;;;;5074680;28;20031;-80
2021/09/13 02:15:57;;;;;;;9.15;2.92;;;;;;;;;;5073358;28;20648;-82
2021/09/13 02:18:23;;;;;;;8.13;2.30;;;;;;;;;;5091680;28;20043;-81
2021/09/13 02:20:50;;;;;;;10.07;2.63;;;;;;;;;;5090335;28;20086;-81
2021/09/13 02:23:16;;;;;;;8.38;2.40;;;;;;;;;;5091309;28;20392;-81
2021/09/13 02:25:42;;;;;;;9.88;3.30;;;;;;;;;;5090859;28;20436;-83
2021/09/13 02:28:08;;;;;;;8.30;2.67;;;;;;;;;;5074295;28;20379;-81
2021/09/13 02:30:34;;;;;;;7.78;2.90;;;;;;;;;;5090154;28;20056;-81
2021/09/13 02:33:00;;;;;;;7.32;2.17;;;;;;;;;;5108310;28;20031;-80
2021/09/13 02:35:27;;;;;;;7.40;2.60;;;;;;;;;;5073696;28;20075;-80
2021/09/13 02:37:53;;;;;;;8.23;2.40;;;;;;;;;;5089632;28;20048;-80
2021/09/13 02:40:20;;;;;;;9.38;3.00;;;;;;;;;;5073197;28;20036;-85
2021/09/13 02:42:46;;;;;;;6.70;2.42;;;;;;;;;;5089564;28;20063;-80
2021/09/13 02:45:12;;;;;;;8.13;2.88;;;;;;;;;;5090553;28;20046;-84
2021/09/13 02:47:38;;;;;;;9.00;2.65;;;;;;;;;;5073097;28;20039;-86
2021/09/13 02:50:07;;;;;;;8.40;2.75;;;;;;;;;;5088604;28;20116;-81
2021/09/13 02:52:33;;;;;;;7.65;2.60;;;;;;;;;;5072789;28;20036;-81
2021/09/13 02:54:59;;;;;;;5.15;2.08;;;;;;;;;;5089216;28;20096;-81
2021/09/13 02:57:25;;;;;;;12.63;2.20;;;;;;;;;;5090489;28;20044;-82
2021/09/13 02:59:51;;;;;;;4.65;1.95;;;;;;;;;;5088999;28;20108;-81
2021/09/13 03:02:18;;;;;;;9.05;2.83;;;;;;;;;;5090236;28;20050;-81
2021/09/13 03:04:44;;;;;;;10.45;2.92;;;;;;;;;;5088361;28;20039;-81
2021/09/13 03:07:10;;;;;;;11.75;2.95;;;;;;;;;;5073804;28;20504;-82
2021/09/13 03:09:38;;;;;;;7.38;3.00;;;;;;;;;;5089902;28;20055;-80
2021/09/13 03:12:04;;;;;;;9.15;2.55;;;;;;;;;;5089283;28;20055;-81
2021/09/13 03:14:34;;;;;;;7.30;2.88;;;;;;;;;;5107867;28;20134;-84
2021/09/13 03:17:00;;;;;;;10.57;3.17;;;;;;;;;;5089869;28;20132;-81
2021/09/13 03:19:29;;;;;;;9.75;2.90;;;;;;;;;;5107520;28;20188;-81
2021/09/13 03:21:56;;;;;;;9.00;2.85;;;;;;;;;;5089392;28;20063;-81
2021/09/13 03:24:22;;;;;;;9.77;2.75;;;;;;;;;;5073005;28;20048;-82
2021/09/13 03:26:48;;;;;;;9.60;3.15;;;;;;;;;;5107206;28;20043;-81
2021/09/13 03:29:14;;;;;;;10.80;2.88;;;;;;;;;;5089751;28;20047;-80
2021/09/13 03:31:40;;;;;;;8.70;2.53;;;;;;;;;;5072702;28;20051;-86
2021/09/13 03:34:07;;;;;;;7.50;2.60;;;;;;;;;;5088536;28;20495;-81
2021/09/13 03:36:34;;;;;;;8.18;2.95;;;;;;;;;;5091766;28;20039;-83
2021/09/13 03:39:00;;;;;;;7.85;2.90;;;;;;;;;;5107063;28;20108;-80
2021/09/13 03:41:26;;;;;;;11.75;3.22;;;;;;;;;;5089047;28;20055;-83
2021/09/13 03:43:52;;;;;;;6.55;2.80;;;;;;;;;;5105334;28;20050;-80
2021/09/13 03:46:18;;;;;;;7.78;3.13;;;;;;;;;;5088885;28;20046;-82
2021/09/13 03:48:45;;;;;;;11.02;2.67;;;;;;;;;;5089034;28;20055;-82
2021/09/13 03:51:11;;;;;;;8.10;2.88;;;;;;;;;;5089714;28;20134;-80
2021/09/13 03:53:37;;;;;;;7.20;2.40;;;;;;;;;;5107746;28;20199;-80
2021/09/13 03:56:03;;;;;;;6.80;2.65;;;;;;;;;;5088345;28;20129;-80
2021/09/13 03:58:29;;;;;;;5.70;2.10;;;;;;;;;;5089171;28;20043;-81
2021/09/13 04:00:55;;;;;;;8.55;3.40;;;;;;;;;;5106740;28;20046;-81
2021/09/13 04:03:27;;;;;;;8.10;3.08;;;;;;;;;;5072416;28;20040;-80
2021/09/13 04:05:56;;;;;;;10.57;3.40;;;;;;;;;;5105809;28;20051;-81
2021/09/13 04:13:29;;;;;;;7.60;2.97;;;;;;;;;;5089051;28;20092;-80
2021/09/13 04:15:55;;;;;;;9.15;3.20;;;;;;;;;;5088515;28;20082;-80
2021/09/13 04:18:21;;;;;;;7.68;3.60;;;;;;;;;;5089270;28;20449;-80
2021/09/13 04:20:48;;;;;;;8.43;3.20;;;;;;;;;;5088770;28;20067;-81
2021/09/13 04:23:14;;;;;;;11.80;3.38;;;;;;;;;;5089036;28;20097;-80
2021/09/13 04:25:40;;;;;;;6.85;2.85;;;;;;;;;;5072313;28;20496;-81
2021/09/13 04:28:06;;;;;;;6.80;2.72;;;;;;;;;;5071849;28;20055;-79
2021/09/13 04:30:32;;;;;;;5.30;2.72;;;;;;;;;;5089762;28;20039;-81
2021/09/13 04:32:58;;;;;;;5.70;2.40;;;;;;;;;;5071314;28;20134;-81
2021/09/13 04:35:24;;;;;;;7.68;2.50;;;;;;;;;;5072294;28;20044;-82
2021/09/13 04:37:50;;;;;;;7.32;3.20;;;;;;;;;;5088306;28;20071;-79
2021/09/13 04:40:16;;;;;;;8.77;2.85;;;;;;;;;;5088837;28;20058;-79
2021/09/13 04:42:42;;;;;;;8.60;2.65;;;;;;;;;;5087416;28;20049;-83
2021/09/13 04:45:09;;;;;;;7.82;2.83;;;;;;;;;;5072415;28;20054;-79
2021/09/13 04:47:35;;;;;;;6.13;2.20;;;;;;;;;;5091896;28;20043;-79
2021/09/13 04:50:02;;;;;;;6.85;2.80;;;;;;;;;;5085281;28;20300;-79
2021/09/13 04:52:28;;;;;;;4.85;2.15;;;;;;;;;;5093653;28;20047;-79
2021/09/13 04:54:54;;;;;;;6.03;2.50;;;;;;;;;;5074948;28;20047;-80
2021/09/13 04:57:20;;;;;;;7.43;3.13;;;;;;;;;;5092151;28;20050;-79
2021/09/13 04:59:46;;;;;;;7.43;3.10;;;;;;;;;;5076598;28;20512;-80
2021/09/13 05:02:12;;;;;;;6.07;3.10;;;;;;;;;;5094806;28;20407;-80
2021/09/13 05:04:39;;;;;;;8.95;3.15;;;;;;;;;;5093230;28;20118;-79
2021/09/13 05:07:05;;;;;;;9.52;2.80;;;;;;;;;;5100318;27;20042;-80
2021/09/13 05:09:31;;;;;;;6.88;2.78;;;;;;;;;;5095830;28;20120;-80
2021/09/13 05:11:57;;;;;;;3.65;2.28;;;;;;;;;;5076889;28;20044;-80
2021/09/13 05:14:23;;;;;;;9.50;3.10;;;;;;;;;;5094227;28;20051;-80
2021/09/13 05:16:49;;;;;;;4.65;2.40;;;;;;;;;;5093287;28;20713;-80
2021/09/13 05:19:15;;;;;;;13.07;6.45;;;;;;;;;;5094240;28;20044;-81
2021/09/13 05:21:44;;;;;;;10.00;3.17;;;;;;;;;;5077590;28;20146;-83
2021/09/13 05:24:10;;;;;;;8.07;3.13;;;;;;;;;;5093902;28;20044;-80
2021/09/13 05:26:36;;;;;;;8.00;3.55;;;;;;;;;;5094401;28;20057;-81
2021/09/13 05:29:05;;;;;;;8.73;3.22;;;;;;;;;;5097247;28;20188;-80
2021/09/13 05:31:31;;;;;;;5.40;2.97;;;;;;;;;;5080197;28;20135;-81
2021/09/13 05:33:57;;;;;;;8.77;2.80;;;;;;;;;;5073101;28;20044;-80
2021/09/13 05:36:23;;;;;;;10.23;2.60;;;;;;;;;;5091800;28;20097;-81
2021/09/13 05:38:50;;;;;;;5.45;2.13;;;;;;;;;;5093188;28;20093;-80
2021/09/13 05:41:16;;;;;;;7.80;3.67;;;;;;;;;;5093939;28;20054;-80
2021/09/13 05:43:42;;;;;;;6.28;2.90;;;;;;;;;;5076873;28;20492;-80
2021/09/13 05:46:08;;;;;;;8.18;2.80;;;;;;;;;;5076416;28;20043;-80
2021/09/13 05:48:34;;;;;;;8.57;2.83;;;;;;;;;;5093872;28;20103;-80
2021/09/13 05:51:00;;;;;;;6.05;2.83;;;;;;;;;;5111209;28;20051;-80
2021/09/13 05:53:26;;;;;;;8.90;3.00;;;;;;;;;;5076729;28;20067;-81
2021/09/13 05:55:52;;;;;;;8.00;2.80;;;;;;;;;;5093000;28;20051;-81
2021/09/13 05:58:18;;;;;;;7.70;3.20;;;;;;;;;;5076273;28;20054;-80
2021/09/13 06:00:44;;;;;;;5.72;3.00;;;;;;;;;;5102322;28;20043;-84
2021/09/13 06:03:10;;;;;;;11.05;3.10;;;;;;;;;;5075839;28;20062;-80
2021/09/13 06:05:37;;;;;;;5.90;2.55;;;;;;;;;;5074932;28;20473;-80
2021/09/13 06:08:03;;;;;;;7.05;2.95;;;;;;;;;;5092558;28;20135;-80
2021/09/13 06:10:30;;;;;;;13.50;2.80;;;;;;;;;;5076752;28;20091;-81
2021/09/13 06:12:56;;;;;;;9.10;2.40;;;;;;;;;;5092526;28;20189;-80
2021/09/13 06:15:22;;;;;;;7.28;2.55;;;;;;;;;;5076168;28;20138;-81
2021/09/13 06:17:48;;;;;;;8.68;3.08;;;;;;;;;;5093817;28;20047;-87
2021/09/13 06:20:15;;;;;;;9.65;3.05;;;;;;;;;;5093462;28;20043;-82
2021/09/13 06:22:41;;;;;;;6.88;2.70;;;;;;;;;;5093481;28;20104;-82
2021/09/13 06:25:09;;;;;;;6.45;2.60;;;;;;;;;;5092097;28;20039;-82
2021/09/13 06:27:35;;;;;;;7.60;2.88;;;;;;;;;;5086838;28;20078;-83
2021/09/13 06:30:01;;;;;;;7.22;2.78;;;;;;;;;;5072351;28;20163;-82
2021/09/13 06:32:27;;;;;;;6.90;2.60;;;;;;;;;;5089648;28;20051;-82
2021/09/13 06:34:53;;;;;;;7.10;2.67;;;;;;;;;;5075705;28;20368;-82
2021/09/13 06:37:21;;;;;;;7.80;3.38;;;;;;;;;;5076625;28;20043;-82
2021/09/13 06:39:56;;;;;;;8.68;2.95;;;;;;;;;;5106330;28;20054;-87
2021/09/13 06:42:23;;;;;;;9.35;2.90;;;;;;;;;;5076180;28;20050;-83
2021/09/13 06:44:49;;;;;;;6.47;3.17;;;;;;;;;;5075773;28;20167;-87
2021/09/13 06:49:57;;;;;;;9.40;3.05;;;;;;;;;;5092232;28;20074;-84
2021/09/13 06:52:23;;;;;;;9.23;3.15;;;;;;;;;;5093223;28;20130;-83
2021/09/13 06:54:50;;;;;;;8.88;3.15;;;;;;;;;;5092287;28;20040;-87
2021/09/13 06:57:16;;;;;;;7.03;3.05;;;;;;;;;;5076024;28;20558;-84
2021/09/13 06:59:42;;;;;;;10.82;3.30;;;;;;;;;;5092380;28;20055;-83
2021/09/13 07:02:08;;;;;;;8.23;3.20;;;;;;;;;;5092135;28;20575;-84
2021/09/13 07:04:35;;;;;;;7.15;2.83;;;;;;;;;;5075965;28;20096;-84
2021/09/13 07:07:01;;;;;;;8.48;2.92;;;;;;;;;;5091364;28;20044;-83
2021/09/13 07:09:27;;;;;;;7.82;2.72;;;;;;;;;;5093070;28;20039;-84
2021/09/13 07:11:53;;;;;;;4.88;1.98;;;;;;;;;;5092245;28;20563;-84
2021/09/13 07:14:19;;;;;;;6.32;2.40;;;;;;;;;;5075752;28;20051;-84
2021/09/13 07:16:48;;;;;;;10.13;2.28;;;;;;;;;;5092113;28;20048;-88
2021/09/13 07:19:14;;;;;;;6.88;1.88;;;;;;;;;;5073267;28;20054;-83
2021/09/13 07:21:42;;;;;;;8.43;2.08;;;;;;;;;;5089051;28;20083;-84
2021/09/13 07:24:08;;;;;;;8.98;2.60;;;;;;;;;;5087760;28;20048;-84
2021/09/13 07:26:34;;;;;;;6.32;2.20;;;;;;;;;;5055739;28;20044;-85
2021/09/13 07:29:02;;;;;;;8.80;2.53;;;;;;;;;;5073600;28;20484;-83
2021/09/13 07:31:29;;;;;;;5.93;2.22;;;;;;;;;;5092269;28;20059;-83
2021/09/13 07:33:55;;;;;;;6.47;2.00;;;;;;;;;;5091701;28;20079;-83
2021/09/13 07:36:21;;;;;;;6.97;2.25;;;;;;;;;;5075749;28;20039;-83
2021/09/13 07:38:47;;;;;;;7.55;2.22;;;;;;;;;;5079607;28;20035;-87
2021/09/13 07:41:13;;;;;;;6.22;1.80;;;;;;;;;;5108732;28;20044;-85
2021/09/13 07:43:39;;;;;;;5.97;2.20;;;;;;;;;;5109267;28;20085;-84
2021/09/13 07:46:05;;;;;;;6.13;2.20;;;;;;;;;;5108614;28;20134;-85
2021/09/13 07:48:31;;;;;;;5.50;1.85;;;;;;;;;;5092624;28;20134;-84
2021/09/13 07:50:58;;;;;;;4.88;1.90;;;;;;;;;;5091588;28;20100;-82
2021/09/13 07:53:24;;;;;;;5.70;2.30;;;;;;;;;;5109236;28;20139;-82
2021/09/13 07:55:50;;;;;;;8.38;1.60;;;;;;;;;;5091754;28;20047;-86
2021/09/13 07:58:16;;;;;;;4.78;1.58;;;;;;;;;;5105924;28;20040;-84
2021/09/13 08:00:42;;;;;;;5.40;1.50;;;;;;;;;;5109300;28;20095;-83
2021/09/13 08:03:08;;;;;;;5.97;1.80;;;;;;;;;;5090920;28;20043;-82
2021/09/13 08:05:34;;;;;;;8.68;1.98;;;;;;;;;;5090724;28;20051;-82
2021/09/13 08:08:00;;;;;;;6.93;1.92;;;;;;;;;;5074595;28;20047;-83
2021/09/13 08:10:26;;;;;;;6.35;1.70;;;;;;;;;;5075112;28;20043;-84
2021/09/13 08:12:52;;;;;;;5.38;1.65;;;;;;;;;;5091584;28;20136;-88
2021/09/13 08:15:22;;;;;;;7.25;2.20;;;;;;;;;;5091789;28;20043;-82
2021/09/13 08:17:48;;;;;;;5.15;1.70;;;;;;;;;;5075527;28;20054;-88
2021/09/13 08:20:14;;;;;;;6.18;1.85;;;;;;;;;;5083554;28;20113;-83
2021/09/13 08:22:40;;;;;;;6.00;2.10;;;;;;;;;;5055195;28;20040;-83
2021/09/13 08:25:07;;;;;;;5.75;1.67;;;;;;;;;;5072034;28;20050;-83
2021/09/13 08:27:33;;;;;;;4.32;1.95;;;;;;;;;;5093470;28;20051;-82
2021/09/13 08:29:59;;;;;;;5.93;1.70;;;;;;;;;;5078366;28;20047;-82
2021/09/13 08:32:25;;;;;;;4.07;1.80;;;;;;;;;;5095724;28;20503;-82
2021/09/13 08:34:52;;;;;;;5.60;1.70;;;;;;;;;;5095448;28;20070;-87
2021/09/13 08:37:18;;;;;;;6.57;1.38;;;;;;;;;;5078939;28;20043;-82
2021/09/13 08:39:44;;;;;;;4.70;1.13;;;;;;;;;;5093705;28;20391;-83
2021/09/13 08:42:10;;;;;;;2.60;1.17;;;;;;;;;;5095405;28;20035;-84
2021/09/13 08:44:38;;;;;;;4.03;1.20;;;;;;;;;;5113083;28;20055;-83
2021/09/13 08:47:11;;;;;;;4.30;1.33;;;;;;;;;;5111946;28;20052;-84
2021/09/13 08:49:39;;;;;;;3.72;1.08;;;;;;;;;;5112747;28;20107;-84
2021/09/13 08:52:06;;;;;;;4.40;1.55;;;;;;;;;;5095145;28;20051;-83
2021/09/13 08:54:35;;;;;;;5.13;1.77;;;;;;;;;;5113686;28;20055;-82
2021/09/13 08:57:04;;;;;;;3.78;1.40;;;;;;;;;;5111900;28;20499;-83
2021/09/13 08:59:33;;;;;;;3.42;1.40;;;;;;;;;;5095221;28;20058;-84
2021/09/13 09:02:00;;;;;;;5.28;1.80;;;;;;;;;;5095050;28;20619;-83
2021/09/13 09:04:30;;;;;;;4.85;1.30;;;;;;;;;;5079209;28;20067;-83
2021/09/13 09:07:07;;;;;;;3.63;1.30;;;;;;;;;;5090615;28;20040;-82
2021/09/13 09:09:33;;;;;;;5.97;1.25;;;;;;;;;;5078279;28;20054;-82
2021/09/13 09:12:06;;;;;;;7.18;1.38;;;;;;;;;;5112602;28;20073;-83
2021/09/13 09:14:43;;;;;;;4.47;1.20;;;;;;;;;;5095396;28;20495;-83
2021/09/13 09:17:19;;;;;;;1.80;0.90;;;;;;;;;;5077948;28;20491;-83
2021/09/13 09:19:45;;;;;;;3.28;1.10;;;;;;;;;;5096361;28;20048;-84
2021/09/13 09:22:18;;;;;;;5.47;1.08;;;;;;;;;;5111535;28;20175;-84
2021/09/13 09:24:45;;;;;;;3.08;1.00;;;;;;;;;;5087130;28;20071;-84
2021/09/13 09:27:11;;;;;;;3.63;1.55;;;;;;;;;;5094469;28;20087;-83
2021/09/13 09:29:37;;;;;;;2.42;1.00;;;;;;;;;;5094827;28;20047;-83
2021/09/13 09:32:03;;;;;;;3.03;0.90;;;;;;;;;;5094442;28;20040;-83
2021/09/13 09:34:33;;;;;;;3.78;1.25;;;;;;;;;;5078226;28;20044;-83
2021/09/13 09:37:06;;;;;;;2.08;0.90;;;;;;;;;;5094119;28;20616;-83
2021/09/13 09:39:33;;;;;;;3.15;1.00;;;;;;;;;;5077309;28;20059;-84
2021/09/13 09:42:00;;;;;;;2.40;1.00;;;;;;;;;;5093232;28;20498;-83
2021/09/13 09:44:27;;;;;;;3.22;0.90;;;;;;;;;;5094210;28;20104;-83
2021/09/13 09:46:54;;;;;;;5.30;1.02;;;;;;;;;;5077071;28;20125;-88
2021/09/13 09:49:22;;;;;;;2.00;0.82;;;;;;;;;;5093642;28;20075;-83
2021/09/13 09:51:49;;;;;;;3.60;0.90;;;;;;;;;;5094114;28;20109;-83
2021/09/13 09:54:16;;;;;;;3.15;0.90;;;;;;;;;;5093378;28;20051;-86
2021/09/13 09:56:44;;;;;;;4.00;0.80;;;;;;;;;;5094134;28;20088;-83
2021/09/13 09:59:12;;;;;;;2.97;1.05;;;;;;;;;;5084044;28;20140;-83
2021/09/13 10:01:46;;;;;;;2.00;0.85;;;;;;;;;;5070088;28;20049;-85
2021/09/13 10:04:17;;;;;;;3.22;0.90;;;;;;;;;;5069712;28;20117;-83
2021/09/13 10:06:44;;;;;;;2.38;0.90;;;;;;;;;;5052687;28;20056;-85
2021/09/13 10:09:10;;;;;;;6.07;0.93;;;;;;;;;;5069446;28;20048;-82
2021/09/13 10:11:39;;;;;;;2.38;0.90;;;;;;;;;;5070638;28;20044;-83
2021/09/13 10:14:06;;;;;;;2.95;1.05;;;;;;;;;;5060729;28;20101;-83
2021/09/13 10:16:32;;;;;;;1.73;0.90;;;;;;;;;;5069579;28;20060;-83
2021/09/13 10:18:59;;;;;;;1.40;0.90;;;;;;;;;;5065622;28;20129;-83
2021/09/13 10:21:25;;;;;;;3.15;1.00;;;;;;;;;;5064656;28;20128;-83
2021/09/13 10:23:52;;;;;;;3.22;1.00;;;;;;;;;;5052754;28;20043;-85
2021/09/13 10:26:20;;;;;;;4.20;1.00;;;;;;;;;;5051847;28;20048;-85
2021/09/13 10:29:02;;;;;;;6.47;1.10;;;;;;;;;;5052635;28;20459;-84
2021/09/13 10:31:40;;;;;;;2.50;0.75;;;;;;;;;;5053212;28;20051;-85
2021/09/13 10:34:15;;;;;;;3.42;0.90;;;;;;;;;;5052013;28;20047;-85
2021/09/13 10:37:00;;;;;;;3.70;1.27;;;;;;;;;;5069348;28;20141;-84
2021/09/13 10:39:45;;;;;;;2.65;0.90;;;;;;;;;;5052675;28;20066;-85
2021/09/13 10:42:11;;;;;;;4.50;1.10;;;;;;;;;;5068374;28;20093;-85
2021/09/13 10:44:37;;;;;;;3.70;1.20;;;;;;;;;;5052655;28;20048;-85
2021/09/13 10:47:05;;;;;;;4.97;1.00;;;;;;;;;;5068200;28;20083;-85
2021/09/13 10:49:31;;;;;;;4.03;1.00;;;;;;;;;;5053627;28;20508;-84
2021/09/13 10:52:16;;;;;;;1.85;0.88;;;;;;;;;;5031618;28;20066;-85
2021/09/13 10:55:01;;;;;;;2.92;1.10;;;;;;;;;;5032421;28;20045;-84
2021/09/13 10:57:46;;;;;;;4.07;1.00;;;;;;;;;;5032213;28;20051;-84
2021/09/13 11:00:15;;;;;;;3.38;1.00;;;;;;;;;;5037892;28;20318;-84
2021/09/13 11:02:41;;;;;;;3.33;0.90;;;;;;;;;;5033828;28;20107;-85
2021/09/13 11:05:23;;;;;;;3.30;0.90;;;;;;;;;;5055922;28;20515;-84
2021/09/13 11:08:24;;;;;;;1.88;1.08;;;;;;;;;;5068678;28;20036;-84
2021/09/13 11:10:50;;;;;;;2.22;1.10;;;;;;;;;;4990968;28;20580;-82
2021/09/13 11:13:18;;;;;;;1.67;0.80;;;;;;;;;;5051245;28;20152;-83
2021/09/13 11:15:51;;;;;;;3.30;1.00;;;;;;;;;;5052005;28;20049;-83
2021/09/13 11:18:32;;;;;;;2.72;1.00;;;;;;;;;;5048286;28;20676;-82
2021/09/13 11:21:21;;;;;;;4.18;1.35;;;;;;;;;;5035736;28;20481;-88
2021/09/13 11:23:48;;;;;;;3.88;1.20;;;;;;;;;;5052386;28;20050;-83
2021/09/13 11:26:18;;;;;;;4.53;1.25;;;;;;;;;;5051959;28;20047;-84
2021/09/13 11:28:57;;;;;;;3.38;1.60;;;;;;;;;;5055258;28;20041;-85
2021/09/13 11:31:27;;;;;;;2.33;0.98;;;;;;;;;;5068777;28;20044;-84
2021/09/13 11:33:53;;;;;;;2.90;1.02;;;;;;;;;;5041049;28;20079;-84
2021/09/13 11:36:23;;;;;;;3.13;1.02;;;;;;;;;;5048743;28;20041;-83
2021/09/13 11:39:03;;;;;;;3.08;1.17;;;;;;;;;;5049403;28;20056;-83
2021/09/13 11:41:29;;;;;;;2.38;1.10;;;;;;;;;;5049218;28;20051;-83
2021/09/13 11:44:07;;;;;;;4.00;1.08;;;;;;;;;;5032700;28;20504;-84
2021/09/13 11:46:50;;;;;;;5.03;1.35;;;;;;;;;;5032221;28;20055;-83
2021/09/13 11:49:18;;;;;;;3.45;1.10;;;;;;;;;;5062049;28;20045;-84
2021/09/13 11:52:02;;;;;;;2.33;1.02;;;;;;;;;;5069073;28;20048;-84
2021/09/13 11:54:28;;;;;;;3.00;1.17;;;;;;;;;;5068527;28;20042;-84
2021/09/13 11:56:57;;;;;;;2.70;1.10;;;;;;;;;;5067415;28;20041;-86
2021/09/13 11:59:24;;;;;;;4.10;1.00;;;;;;;;;;5031015;28;20057;-84
2021/09/13 12:02:01;;;;;;;4.80;1.08;;;;;;;;;;5083944;28;20049;-83
2021/09/13 12:04:28;;;;;;;2.92;0.90;;;;;;;;;;5085947;28;20649;-83
2021/09/13 12:07:04;;;;;;;3.58;0.90;;;;;;;;;;5054178;28;20385;-83
2021/09/13 12:09:30;;;;;;;2.22;1.10;;;;;;;;;;5072139;28;20369;-83
2021/09/13 12:11:56;;;;;;;3.30;1.10;;;;;;;;;;5072333;28;20049;-83
2021/09/13 12:14:22;;;;;;;4.53;2.70;;;;;;;;;;5071341;28;20119;-81
2021/09/13 12:17:03;;;;;;;4.00;1.38;;;;;;;;;;5072080;28;20048;-82
2021/09/13 12:19:29;;;;;;;4.97;1.80;;;;;;;;;;5071946;28;20048;-82
2021/09/13 12:22:01;;;;;;;5.50;1.58;;;;;;;;;;5071994;28;20048;-82
2021/09/13 12:24:27;;;;;;;3.28;1.10;;;;;;;;;;5071692;28;20048;-82
2021/09/13 12:26:53;;;;;;;2.95;1.20;;;;;;;;;;5071843;28;20135;-82
2021/09/13 12:29:19;;;;;;;3.83;0.93;;;;;;;;;;5053825;28;20694;-82
2021/09/13 12:31:45;;;;;;;2.40;1.00;;;;;;;;;;5071833;28;20098;-82
2021/09/13 12:34:11;;;;;;;3.75;1.08;;;;;;;;;;5054293;28;20124;-82
2021/09/13 12:36:38;;;;;;;3.97;1.17;;;;;;;;;;5071569;28;20044;-82
2021/09/13 12:39:07;;;;;;;3.60;1.75;;;;;;;;;;5054155;28;20063;-82
2021/09/13 12:41:33;;;;;;;5.32;1.95;;;;;;;;;;5071575;28;20412;-83
2021/09/13 12:44:00;;;;;;;4.05;1.52;;;;;;;;;;5070829;28;20043;-86
2021/09/13 12:46:26;;;;;;;2.42;1.05;;;;;;;;;;5071420;28;20041;-82
2021/09/13 12:48:52;;;;;;;3.45;1.10;;;;;;;;;;5054408;28;20048;-82
2021/09/13 12:51:25;;;;;;;4.25;1.23;;;;;;;;;;5070790;28;20047;-82
2021/09/13 12:53:55;;;;;;;2.85;1.00;;;;;;;;;;5064367;28;20120;-82
2021/09/13 12:56:21;;;;;;;3.25;1.30;;;;;;;;;;5033846;28;20080;-83
2021/09/13 12:58:48;;;;;;;3.72;1.02;;;;;;;;;;5039253;28;20084;-82
2021/09/13 13:01:29;;;;;;;4.32;0.93;;;;;;;;;;5071776;28;20040;-82
2021/09/13 13:03:59;;;;;;;3.08;1.10;;;;;;;;;;5077547;28;20043;-82
2021/09/13 13:06:25;;;;;;;3.47;0.90;;;;;;;;;;5076368;28;20099;-83
2021/09/13 13:08:51;;;;;;;2.47;1.00;;;;;;;;;;5094401;28;20045;-82
2021/09/13 13:11:17;;;;;;;2.33;0.90;;;;;;;;;;5077089;28;20086;-82
2021/09/13 13:13:44;;;;;;;4.07;1.30;;;;;;;;;;5093749;28;20101;-83
2021/09/13 13:16:10;;;;;;;2.90;0.98;;;;;;;;;;5094076;28;20074;-84
2021/09/13 13:18:36;;;;;;;1.92;0.80;;;;;;;;;;5077309;28;20075;-83
2021/09/13 13:21:03;;;;;;;2.67;1.00;;;;;;;;;;5093709;28;20047;-86
2021/09/13 13:23:29;;;;;;;4.47;1.00;;;;;;;;;;5077263;28;20062;-82
2021/09/13 13:25:55;;;;;;;5.07;1.10;;;;;;;;;;5094224;28;20055;-84
2021/09/13 13:28:25;;;;;;;3.60;1.10;;;;;;;;;;5086462;28;20058;-82
2021/09/13 13:30:51;;;;;;;3.53;1.10;;;;;;;;;;5057425;28;20391;-83
2021/09/13 13:33:18;;;;;;;3.97;1.17;;;;;;;;;;5076157;28;20380;-84
2021/09/13 13:35:44;;;;;;;5.57;1.20;;;;;;;;;;5076982;28;20043;-82
2021/09/13 13:38:10;;;;;;;3.95;1.00;;;;;;;;;;5076698;28;20055;-82
2021/09/13 13:40:37;;;;;;;3.95;1.13;;;;;;;;;;5094161;28;20052;-82
2021/09/13 13:43:06;;;;;;;5.32;1.67;;;;;;;;;;5093118;28;20051;-83
2021/09/13 13:45:32;;;;;;;2.70;1.00;;;;;;;;;;5077278;28;20732;-82
2021/09/13 13:47:58;;;;;;;2.90;1.50;;;;;;;;;;5089681;28;20044;-82
2021/09/13 13:50:27;;;;;;;3.95;1.15;;;;;;;;;;5082448;27;20131;-81
2021/09/13 13:52:59;;;;;;;3.88;1.13;;;;;;;;;;5093812;28;20043;-82
2021/09/13 13:55:25;;;;;;;3.45;1.08;;;;;;;;;;5092921;28;20655;-81
2021/09/13 13:57:52;;;;;;;5.10;1.25;;;;;;;;;;5093502;28;20127;-82
2021/09/13 14:00:18;;;;;;;2.90;1.08;;;;;;;;;;5091906;28;20051;-82
2021/09/13 14:02:44;;;;;;;4.68;1.20;;;;;;;;;;5093568;28;20040;-81
2021/09/13 14:05:11;;;;;;;3.83;1.30;;;;;;;;;;5075273;28;20047;-81
2021/09/13 14:07:37;;;;;;;5.43;1.60;;;;;;;;;;5094040;28;20079;-81
2021/09/13 14:10:05;;;;;;;4.22;1.40;;;;;;;;;;5110860;28;20046;-87
2021/09/13 14:12:31;;;;;;;3.78;1.23;;;;;;;;;;5088355;28;20075;-81
2021/09/13 14:14:57;;;;;;;4.03;1.40;;;;;;;;;;5113623;28;20043;-82
2021/09/13 14:17:24;;;;;;;2.78;1.17;;;;;;;;;;5077964;28;20047;-82
2021/09/13 14:19:50;;;;;;;3.08;1.00;;;;;;;;;;5078563;28;20043;-82
2021/09/13 14:22:17;;;;;;;4.25;1.45;;;;;;;;;;5094639;28;20097;-82
2021/09/13 14:24:43;;;;;;;2.88;1.13;;;;;;;;;;5094283;28;20047;-81
2021/09/13 14:27:10;;;;;;;5.07;1.30;;;;;;;;;;5094555;28;20043;-82
2021/09/13 14:29:36;;;;;;;4.80;1.30;;;;;;;;;;5078227;28;20051;-81
2021/09/13 14:32:03;;;;;;;4.25;1.15;;;;;;;;;;5094639;28;20051;-89
2021/09/13 14:34:29;;;;;;;3.38;1.20;;;;;;;;;;5095261;28;20050;-82
2021/09/13 14:36:55;;;;;;;2.67;1.27;;;;;;;;;;5078310;28;20053;-82
2021/09/13 14:39:21;;;;;;;3.63;1.20;;;;;;;;;;5094049;28;20173;-84
2021/09/13 14:41:49;;;;;;;2.38;1.13;;;;;;;;;;5084621;28;20040;-82
2021/09/13 14:44:16;;;;;;;4.05;1.33;;;;;;;;;;5107930;28;20170;-81
2021/09/13 14:46:44;;;;;;;2.30;1.10;;;;;;;;;;5083891;28;20377;-82
2021/09/13 14:49:11;;;;;;;4.78;1.20;;;;;;;;;;5093525;28;20051;-83
2021/09/13 14:51:38;;;;;;;2.90;1.05;;;;;;;;;;5094164;28;20043;-84